Time;durP1;ratioP1;P1;durP2;ratioP2;P2;SDS_P1;SDS_P2;PMS_P1;PMS_P2;Temp;Humidity;BMP_temperature;BMP_pressure;BME280_temperature;BME280_humidity;BME280_pressure;Samples;Min_cycle;Max_cycle;Signal;HPM_P1;HPM_P2
2023/12/07 00:00:38;;;;;;;17.38;9.27;;;2.20;99.90;;;;;;4992937;28;20046;-85
2023/12/07 00:03:06;;;;;;;16.90;10.50;;;2.20;99.90;;;;;;4974754;28;20566;-86
2023/12/07 00:05:33;;;;;;;15.07;10.05;;;2.40;99.90;;;;;;4992594;28;20038;-85
2023/12/07 00:07:59;;;;;;;15.65;10.27;;;2.50;99.90;;;;;;4996640;28;20037;-88
2023/12/07 00:10:24;;;;;;;17.85;10.25;;;2.20;99.90;;;;;;4994108;28;20501;-88
2023/12/07 00:12:50;;;;;;;14.55;9.80;;;1.50;99.90;;;;;;4984254;28;20487;-86
2023/12/07 00:15:16;;;;;;;16.00;9.40;;;3.20;99.90;;;;;;4960222;28;20051;-86
2023/12/07 00:17:42;;;;;;;12.50;9.10;;;2.00;99.90;;;;;;4966478;28;20038;-86
2023/12/07 00:20:08;;;;;;;13.80;9.82;;;2.20;99.90;;;;;;5015559;28;20050;-85
2023/12/07 00:22:34;;;;;;;15.23;10.55;;;2.20;99.90;;;;;;4988367;28;20060;-84
2023/12/07 00:25:00;;;;;;;16.23;10.35;;;2.10;99.90;;;;;;4974243;28;20117;-85
2023/12/07 00:27:25;;;;;;;13.85;9.82;;;1.90;99.90;;;;;;4969905;28;20044;-85
2023/12/07 00:29:51;;;;;;;18.13;10.32;;;1.10;99.90;;;;;;4962607;28;20438;-85
2023/12/07 00:32:17;;;;;;;15.52;9.82;;;1.50;99.90;;;;;;4976812;28;20502;-85
2023/12/07 00:34:43;;;;;;;13.85;8.90;;;3.00;99.90;;;;;;4949885;28;20042;-85
2023/12/07 00:37:09;;;;;;;13.80;9.82;;;2.20;99.90;;;;;;4978838;28;20124;-84
2023/12/07 00:39:36;;;;;;;13.48;9.40;;;2.20;99.90;;;;;;4995783;28;20042;-84
2023/12/07 00:42:03;;;;;;;13.95;9.40;;;1.00;99.90;;;;;;4977998;28;20522;-84
2023/12/07 00:44:28;;;;;;;15.88;10.05;;;2.20;99.90;;;;;;4979550;28;20050;-84
2023/12/07 00:46:54;;;;;;;17.42;9.80;;;2.20;99.90;;;;;;4958931;28;20043;-84
2023/12/07 00:49:20;;;;;;;16.85;9.70;;;2.40;99.90;;;;;;4990218;28;20034;-85
2023/12/07 00:51:45;;;;;;;16.35;10.07;;;2.70;99.90;;;;;;4978090;28;20399;-84
2023/12/07 00:54:11;;;;;;;14.07;9.48;;;2.90;99.90;;;;;;4976478;28;20050;-85
2023/12/07 00:56:37;;;;;;;17.38;9.85;;;2.10;99.90;;;;;;4977788;28;20046;-84
2023/12/07 00:59:03;;;;;;;16.45;10.27;;;1.60;99.90;;;;;;4996422;28;20038;-85
2023/12/07 01:01:28;;;;;;;15.27;9.90;;;3.00;99.90;;;;;;4976270;28;20182;-85
2023/12/07 01:03:54;;;;;;;17.13;10.05;;;2.20;99.90;;;;;;4970954;28;20049;-84
2023/12/07 01:06:20;;;;;;;16.55;10.30;;;2.20;99.90;;;;;;4958558;28;20055;-85
2023/12/07 01:08:46;;;;;;;16.00;9.20;;;2.20;99.90;;;;;;4958492;28;20126;-85
2023/12/07 01:11:12;;;;;;;16.88;9.13;;;2.90;99.90;;;;;;4975070;28;20038;-84
2023/12/07 01:13:37;;;;;;;16.02;9.70;;;2.20;99.90;;;;;;4994864;28;20054;-85
2023/12/07 01:16:03;;;;;;;12.25;8.15;;;2.10;99.90;;;;;;4978020;28;20137;-85
2023/12/07 01:18:29;;;;;;;16.50;10.50;;;2.10;99.90;;;;;;4994603;28;20043;-85
2023/12/07 01:20:54;;;;;;;13.32;9.68;;;2.50;99.90;;;;;;4978427;28;20046;-85
2023/12/07 01:23:20;;;;;;;15.80;9.95;;;3.10;99.90;;;;;;4975873;28;20150;-85
2023/12/07 01:25:46;;;;;;;16.00;10.27;;;2.20;99.90;;;;;;4977454;28;20406;-84
2023/12/07 01:28:12;;;;;;;13.63;9.25;;;2.20;99.90;;;;;;4994671;28;20049;-84
2023/12/07 01:30:37;;;;;;;16.70;8.82;;;2.10;99.90;;;;;;4977641;28;20057;-84
2023/12/07 01:33:03;;;;;;;12.95;8.77;;;2.10;99.90;;;;;;4994398;28;20066;-84
2023/12/07 01:35:29;;;;;;;16.08;9.02;;;3.10;99.90;;;;;;4974519;28;20153;-85
2023/12/07 01:37:55;;;;;;;15.57;9.40;;;2.60;99.90;;;;;;4975532;28;20086;-84
2023/12/07 01:40:21;;;;;;;16.33;9.55;;;2.60;99.90;;;;;;4961222;28;20039;-84
2023/12/07 01:42:51;;;;;;;17.08;9.35;;;2.10;99.90;;;;;;4972900;28;20042;-84
2023/12/07 01:45:17;;;;;;;18.73;9.90;;;2.10;99.90;;;;;;5010994;28;20037;-84
2023/12/07 01:47:44;;;;;;;16.10;9.23;;;2.10;99.90;;;;;;4961078;28;20039;-84
2023/12/07 01:50:11;;;;;;;12.45;8.82;;;2.80;99.90;;;;;;4977181;28;20074;-84
2023/12/07 01:52:43;;;;;;;14.77;8.82;;;2.10;99.90;;;;;;4999005;28;20046;-85
2023/12/07 01:55:10;;;;;;;14.95;9.02;;;2.10;99.90;;;;;;4994737;28;20159;-84
2023/12/07 01:57:36;;;;;;;14.90;9.40;;;3.00;99.90;;;;;;5013730;28;20042;-84
2023/12/07 02:00:03;;;;;;;12.75;8.88;;;2.60;99.90;;;;;;5013970;28;20081;-85
2023/12/07 02:02:30;;;;;;;13.30;8.90;;;2.10;99.90;;;;;;4996487;28;20402;-84
2023/12/07 02:04:56;;;;;;;13.75;9.40;;;2.40;99.90;;;;;;4991491;28;20125;-84
2023/12/07 02:07:23;;;;;;;14.23;9.65;;;2.10;99.90;;;;;;5001721;28;20453;-84
2023/12/07 02:09:49;;;;;;;13.02;9.05;;;3.40;99.90;;;;;;5013652;28;20042;-84
2023/12/07 02:12:15;;;;;;;12.40;8.68;;;2.80;99.90;;;;;;5013689;28;20092;-84
2023/12/07 02:14:41;;;;;;;10.80;7.75;;;2.70;99.90;;;;;;5013205;28;20510;-85
2023/12/07 02:17:14;;;;;;;14.55;8.75;;;2.00;99.90;;;;;;4995192;28;20132;-84
2023/12/07 02:20:13;;;;;;;14.65;8.57;;;2.00;99.90;;;;;;4996158;28;20415;-84
2023/12/07 02:23:05;;;;;;;15.85;9.32;;;2.00;99.90;;;;;;4995850;28;20049;-85
2023/12/07 02:25:37;;;;;;;13.40;8.98;;;2.00;99.90;;;;;;4992162;28;20470;-85
2023/12/07 02:28:03;;;;;;;12.85;8.13;;;2.10;99.90;;;;;;4985619;28;20104;-84
2023/12/07 02:30:29;;;;;;;13.80;8.73;;;2.50;99.90;;;;;;4992799;28;20050;-85
2023/12/07 02:32:54;;;;;;;14.10;9.52;;;2.00;99.90;;;;;;4993783;28;20042;-85
2023/12/07 02:35:20;;;;;;;14.65;9.07;;;1.90;99.90;;;;;;4979638;28;20084;-84
2023/12/07 02:37:49;;;;;;;11.60;8.15;;;2.00;99.90;;;;;;4994900;28;20056;-84
2023/12/07 02:40:18;;;;;;;12.45;8.55;;;2.00;99.90;;;;;;5013363;28;20088;-86
2023/12/07 02:42:45;;;;;;;11.45;8.32;;;1.90;99.90;;;;;;4996029;28;20085;-85
2023/12/07 02:45:12;;;;;;;14.02;8.55;;;2.50;99.90;;;;;;4994678;28;20205;-85
2023/12/07 02:47:38;;;;;;;14.18;8.13;;;2.00;99.90;;;;;;5013152;28;20079;-85
2023/12/07 02:50:06;;;;;;;11.90;8.32;;;2.00;99.90;;;;;;5013266;28;20406;-86
2023/12/07 02:52:32;;;;;;;12.80;8.80;;;1.90;99.90;;;;;;5013275;28;20402;-84
2023/12/07 02:54:58;;;;;;;12.68;8.52;;;2.20;99.90;;;;;;4993718;28;20042;-84
2023/12/07 02:57:23;;;;;;;12.52;8.68;;;2.40;99.90;;;;;;4995445;28;20041;-85
2023/12/07 02:59:49;;;;;;;13.93;8.77;;;1.40;99.90;;;;;;4995347;28;20038;-84
2023/12/07 03:02:15;;;;;;;12.65;7.90;;;1.50;99.90;;;;;;4979263;28;20111;-84
2023/12/07 03:04:41;;;;;;;12.73;8.70;;;3.60;99.90;;;;;;5011312;28;20048;-84
2023/12/07 03:07:06;;;;;;;12.40;8.60;;;2.00;99.90;;;;;;4995315;28;20052;-85
2023/12/07 03:09:32;;;;;;;12.55;8.55;;;2.90;99.90;;;;;;4995243;28;20046;-84
2023/12/07 03:11:58;;;;;;;11.35;7.70;;;2.10;99.90;;;;;;4979006;28;20053;-84
2023/12/07 03:14:23;;;;;;;12.57;7.80;;;2.90;99.90;;;;;;4993185;28;20043;-85
2023/12/07 03:16:49;;;;;;;14.85;8.43;;;2.00;99.90;;;;;;4983221;28;20038;-84
2023/12/07 03:19:15;;;;;;;13.82;8.27;;;1.90;99.90;;;;;;4995526;28;20049;-85
2023/12/07 03:21:42;;;;;;;14.07;9.25;;;2.30;99.90;;;;;;4994903;28;20420;-85
2023/12/07 03:24:08;;;;;;;14.40;8.32;;;2.10;99.90;;;;;;4995275;28;20042;-85
2023/12/07 03:26:34;;;;;;;13.50;9.27;;;1.80;99.90;;;;;;4993162;28;20037;-85
2023/12/07 03:29:00;;;;;;;12.25;8.27;;;3.20;99.90;;;;;;4970830;28;20038;-85
2023/12/07 03:31:26;;;;;;;12.68;8.15;;;2.00;99.90;;;;;;4994958;28;20038;-84
2023/12/07 03:33:52;;;;;;;13.02;8.50;;;1.30;99.90;;;;;;4995203;28;20057;-85
2023/12/07 03:36:18;;;;;;;12.55;8.48;;;2.00;99.90;;;;;;4993749;28;20050;-85
2023/12/07 03:38:43;;;;;;;12.95;8.40;;;2.30;99.90;;;;;;4974544;28;20491;-84
2023/12/07 03:41:09;;;;;;;11.57;7.43;;;2.80;99.90;;;;;;4975806;28;20086;-84
2023/12/07 03:43:35;;;;;;;11.82;8.43;;;1.90;99.90;;;;;;4979373;28;20125;-85
2023/12/07 03:46:04;;;;;;;14.90;8.80;;;1.90;99.90;;;;;;4979327;28;20384;-84
2023/12/07 03:48:30;;;;;;;10.65;7.45;;;1.90;99.90;;;;;;4978050;28;20133;-84
2023/12/07 03:50:56;;;;;;;13.68;8.30;;;1.90;99.90;;;;;;4977961;28;20482;-85
2023/12/07 03:53:22;;;;;;;12.25;8.30;;;1.90;99.90;;;;;;5001537;28;20046;-84
2023/12/07 03:55:47;;;;;;;13.30;8.70;;;2.60;99.90;;;;;;4982127;28;20494;-84
2023/12/07 03:58:13;;;;;;;14.77;8.55;;;1.90;99.90;;;;;;4986298;28;20177;-84
2023/12/07 04:00:39;;;;;;;11.52;8.00;;;1.00;99.90;;;;;;4990011;28;20506;-85
2023/12/07 04:03:05;;;;;;;13.50;8.18;;;1.90;99.90;;;;;;4987394;28;20380;-85
2023/12/07 04:05:31;;;;;;;15.05;8.35;;;1.70;99.90;;;;;;4954033;28;20035;-84
2023/12/07 04:07:57;;;;;;;12.63;8.45;;;1.90;99.90;;;;;;4956630;28;20602;-85
2023/12/07 04:10:23;;;;;;;12.18;7.53;;;2.30;99.90;;;;;;4978874;28;20050;-85
2023/12/07 04:12:49;;;;;;;10.93;6.80;;;1.50;99.90;;;;;;4978976;28;20034;-84
2023/12/07 04:15:15;;;;;;;11.73;7.43;;;2.30;99.90;;;;;;4996433;28;20046;-85
2023/12/07 04:17:41;;;;;;;12.80;7.57;;;1.80;99.90;;;;;;4951737;28;20522;-85
2023/12/07 04:20:07;;;;;;;11.20;7.55;;;2.10;99.90;;;;;;4965953;28;20047;-86
2023/12/07 04:22:33;;;;;;;12.65;7.72;;;1.80;99.90;;;;;;4976627;28;20074;-85
2023/12/07 04:24:59;;;;;;;10.85;6.78;;;1.80;99.90;;;;;;4978138;28;20093;-84
2023/12/07 04:27:25;;;;;;;15.15;7.32;;;2.20;99.90;;;;;;4992053;28;20050;-85
2023/12/07 04:29:51;;;;;;;17.33;7.97;;;2.40;99.90;;;;;;4979632;28;20049;-85
2023/12/07 04:32:16;;;;;;;11.27;6.97;;;1.90;99.90;;;;;;4978812;28;20046;-86
2023/12/07 04:34:42;;;;;;;14.20;6.80;;;2.20;99.90;;;;;;4960891;28;20522;-85
2023/12/07 04:37:08;;;;;;;12.85;6.88;;;1.90;99.90;;;;;;4985888;28;20418;-86
2023/12/07 04:39:34;;;;;;;10.55;7.30;;;1.80;99.90;;;;;;5015251;28;20045;-85
2023/12/07 04:42:00;;;;;;;12.40;7.93;;;2.60;99.90;;;;;;5010994;28;20045;-87
2023/12/07 04:44:26;;;;;;;11.35;6.93;;;1.80;99.90;;;;;;5015342;28;20438;-86
2023/12/07 04:46:52;;;;;;;10.50;7.15;;;2.70;99.90;;;;;;4981654;28;20408;-85
2023/12/07 04:49:18;;;;;;;12.65;7.65;;;2.30;99.90;;;;;;4978404;28;20057;-85
2023/12/07 04:51:46;;;;;;;12.93;7.18;;;2.70;99.90;;;;;;5012210;28;20045;-85
2023/12/07 04:54:14;;;;;;;14.57;7.07;;;1.90;99.90;;;;;;5013169;28;20108;-87
2023/12/07 04:56:41;;;;;;;11.13;7.25;;;1.90;99.90;;;;;;5004622;28;20397;-86
2023/12/07 04:59:07;;;;;;;11.23;6.93;;;2.20;99.90;;;;;;5014898;28;20046;-86
2023/12/07 05:01:32;;;;;;;12.27;7.38;;;1.90;99.90;;;;;;4982194;28;20140;-86
2023/12/07 05:03:58;;;;;;;13.15;7.13;;;2.80;99.90;;;;;;4997570;28;20085;-85
2023/12/07 05:06:24;;;;;;;9.63;6.53;;;1.60;99.90;;;;;;4979747;28;20046;-86
2023/12/07 05:08:50;;;;;;;14.48;6.68;;;2.40;99.90;;;;;;4990314;28;20403;-85
2023/12/07 05:11:16;;;;;;;11.02;6.30;;;2.20;99.90;;;;;;4982661;28;20121;-85
2023/12/07 05:13:42;;;;;;;10.68;6.82;;;1.90;99.90;;;;;;5014919;28;20038;-86
2023/12/07 05:16:09;;;;;;;9.80;6.78;;;2.70;99.90;;;;;;4997461;28;20108;-87
2023/12/07 05:18:36;;;;;;;9.82;6.05;;;1.90;99.90;;;;;;4995873;28;20116;-85
2023/12/07 05:21:01;;;;;;;9.45;5.97;;;1.80;99.90;;;;;;4977983;28;20117;-85
2023/12/07 05:23:27;;;;;;;8.93;6.10;;;1.90;99.90;;;;;;5010935;28;20147;-86
2023/12/07 05:25:54;;;;;;;9.48;5.50;;;2.80;99.90;;;;;;4997653;28;20046;-87
2023/12/07 05:28:19;;;;;;;8.05;5.68;;;2.90;99.90;;;;;;4995502;28;20128;-86
2023/12/07 05:30:46;;;;;;;9.57;6.22;;;2.30;99.90;;;;;;4985891;28;20135;-86
2023/12/07 05:33:12;;;;;;;9.18;5.82;;;1.40;99.90;;;;;;5002761;28;20046;-86
2023/12/07 05:35:38;;;;;;;8.60;5.65;;;2.00;99.90;;;;;;4997169;28;20405;-86
2023/12/07 05:38:04;;;;;;;9.13;5.88;;;2.50;99.90;;;;;;4996757;28;20054;-85
2023/12/07 05:40:30;;;;;;;7.57;5.65;;;1.50;99.90;;;;;;4992645;28;20045;-86
2023/12/07 05:42:55;;;;;;;9.25;6.03;;;1.90;99.90;;;;;;4995019;28;20049;-85
2023/12/07 05:45:21;;;;;;;9.65;6.57;;;1.90;99.90;;;;;;5014150;28;20081;-85
2023/12/07 05:47:47;;;;;;;10.77;6.10;;;1.90;99.90;;;;;;4996821;28;20037;-84
2023/12/07 05:50:13;;;;;;;10.65;6.00;;;2.50;99.90;;;;;;4985353;28;20104;-86
2023/12/07 05:52:39;;;;;;;10.18;6.43;;;1.90;99.90;;;;;;5005244;28;20507;-84
2023/12/07 05:55:05;;;;;;;13.70;6.90;;;1.70;99.90;;;;;;4973532;28;20096;-85
2023/12/07 05:57:31;;;;;;;10.93;6.60;;;1.90;99.90;;;;;;5014125;28;20129;-86
2023/12/07 05:59:56;;;;;;;10.15;6.38;;;1.90;99.90;;;;;;4995590;28;20471;-87
2023/12/07 06:02:22;;;;;;;11.13;7.00;;;2.00;99.90;;;;;;5014022;28;20041;-85
2023/12/07 06:04:48;;;;;;;11.20;6.70;;;1.00;99.90;;;;;;4993101;28;20387;-85
2023/12/07 06:07:13;;;;;;;14.48;7.15;;;1.60;99.90;;;;;;4986377;28;20478;-86
2023/12/07 06:09:39;;;;;;;9.70;6.72;;;1.90;99.90;;;;;;4996240;28;20053;-86
2023/12/07 06:12:05;;;;;;;11.00;6.47;;;2.00;99.90;;;;;;4981220;28;20399;-85
2023/12/07 06:14:32;;;;;;;12.55;7.32;;;2.50;99.90;;;;;;4976802;28;20133;-85
2023/12/07 06:16:59;;;;;;;10.18;6.20;;;2.70;99.90;;;;;;4987051;28;20053;-85
2023/12/07 06:19:25;;;;;;;10.00;7.00;;;3.70;99.90;;;;;;5012435;28;20088;-85
2023/12/07 06:21:50;;;;;;;12.98;6.78;;;1.90;99.90;;;;;;5004958;28;20049;-86
2023/12/07 06:24:16;;;;;;;11.10;7.50;;;2.00;99.90;;;;;;4977206;28;20046;-88
2023/12/07 06:26:42;;;;;;;14.23;7.68;;;1.90;99.90;;;;;;4983499;28;20068;-85
2023/12/07 06:29:07;;;;;;;11.65;7.43;;;1.90;99.90;;;;;;4993715;28;20049;-86
2023/12/07 06:31:34;;;;;;;12.75;8.10;;;2.30;99.90;;;;;;4996843;28;20121;-87
2023/12/07 06:34:00;;;;;;;12.65;7.50;;;1.90;99.90;;;;;;4976461;28;20538;-85
2023/12/07 06:36:26;;;;;;;10.63;7.47;;;2.00;99.90;;;;;;4973918;28;20494;-84
2023/12/07 06:38:54;;;;;;;15.57;7.78;;;1.90;99.90;;;;;;4977059;28;20049;-87
2023/12/07 06:41:20;;;;;;;13.18;7.15;;;1.90;99.90;;;;;;4958140;28;20054;-86
2023/12/07 06:43:46;;;;;;;13.75;8.40;;;1.90;99.90;;;;;;4975936;28;20052;-85
2023/12/07 06:46:16;;;;;;;13.57;8.13;;;2.40;99.90;;;;;;4976101;28;20045;-85
2023/12/07 06:48:42;;;;;;;14.20;8.23;;;2.60;99.90;;;;;;4994470;28;20057;-85
2023/12/07 06:51:07;;;;;;;11.80;7.93;;;2.00;99.90;;;;;;4974296;28;20112;-85
2023/12/07 06:53:33;;;;;;;12.40;7.78;;;2.00;99.90;;;;;;4976005;28;20562;-84
2023/12/07 06:55:59;;;;;;;15.77;8.13;;;2.00;99.90;;;;;;4970288;28;20046;-85
2023/12/07 06:58:25;;;;;;;14.30;8.32;;;1.90;99.90;;;;;;4985024;28;20074;-86
2023/12/07 07:00:50;;;;;;;12.43;7.38;;;3.30;99.90;;;;;;4987476;28;20049;-85
2023/12/07 07:03:16;;;;;;;12.48;7.93;;;1.50;99.90;;;;;;5002549;28;20042;-86
2023/12/07 07:05:42;;;;;;;14.27;8.80;;;1.90;99.90;;;;;;4959838;28;20038;-86
2023/12/07 07:08:08;;;;;;;12.63;7.38;;;2.20;99.90;;;;;;4975939;28;20093;-86
2023/12/07 07:10:34;;;;;;;10.55;7.38;;;2.80;99.90;;;;;;4974893;28;20450;-85
2023/12/07 07:13:04;;;;;;;13.60;7.57;;;2.30;99.90;;;;;;4975941;28;20109;-86
2023/12/07 07:15:32;;;;;;;11.27;7.03;;;2.00;99.90;;;;;;4986833;28;20045;-85
2023/12/07 07:17:58;;;;;;;13.20;7.93;;;2.00;99.90;;;;;;4975290;28;20081;-86
2023/12/07 07:20:26;;;;;;;13.18;8.05;;;3.00;99.90;;;;;;4975145;28;20082;-86
2023/12/07 07:22:51;;;;;;;15.38;7.43;;;2.50;99.90;;;;;;4993139;28;20053;-86
2023/12/07 07:25:19;;;;;;;11.70;7.28;;;2.10;99.90;;;;;;4993182;28;20050;-85
2023/12/07 07:27:45;;;;;;;13.75;7.32;;;2.00;99.90;;;;;;4993266;28;20539;-85
2023/12/07 07:30:12;;;;;;;16.48;7.78;;;2.80;99.90;;;;;;4958701;28;20077;-85
2023/12/07 07:32:38;;;;;;;14.57;8.82;;;2.00;99.90;;;;;;4992829;28;20054;-86
2023/12/07 07:35:04;;;;;;;10.57;7.60;;;2.10;99.90;;;;;;4992629;28;20045;-87
2023/12/07 07:37:29;;;;;;;14.35;7.43;;;2.00;99.90;;;;;;4986066;28;20045;-86
2023/12/07 07:39:55;;;;;;;14.48;8.38;;;1.30;99.90;;;;;;4976315;28;20517;-86
2023/12/07 07:42:21;;;;;;;13.13;7.82;;;2.00;99.90;;;;;;5001384;28;20065;-92
2023/12/07 07:44:47;;;;;;;11.38;7.30;;;1.90;99.90;;;;;;5013363;28;20038;-88
2023/12/07 07:47:12;;;;;;;13.57;8.23;;;1.50;99.90;;;;;;5011922;28;20053;-87
2023/12/07 07:49:38;;;;;;;12.23;8.00;;;2.50;99.90;;;;;;4982381;28;20053;-88
2023/12/07 07:52:05;;;;;;;16.15;7.65;;;2.50;99.90;;;;;;5012278;28;20475;-88
2023/12/07 07:54:31;;;;;;;14.43;8.43;;;2.10;99.90;;;;;;4991659;28;20046;-87
2023/12/07 07:56:56;;;;;;;14.75;8.52;;;2.40;99.90;;;;;;4995543;28;20046;-90
2023/12/07 07:59:22;;;;;;;13.27;8.85;;;3.10;99.90;;;;;;4995231;28;20493;-87
2023/12/07 08:01:48;;;;;;;12.30;7.97;;;1.70;99.90;;;;;;4995484;28;20394;-86
2023/12/07 08:04:15;;;;;;;12.57;8.15;;;1.60;99.90;;;;;;4996441;28;20514;-89
2023/12/07 08:06:41;;;;;;;15.15;8.52;;;2.50;99.90;;;;;;4995412;28;20100;-88
2023/12/07 08:09:09;;;;;;;16.20;9.13;;;2.70;99.90;;;;;;4979491;28;20050;-88
2023/12/07 08:11:35;;;;;;;13.13;8.75;;;3.10;99.90;;;;;;4979036;28;20089;-89
2023/12/07 08:14:01;;;;;;;13.77;8.80;;;3.20;99.90;;;;;;5012264;28;20070;-88
2023/12/07 08:16:27;;;;;;;15.10;8.57;;;2.70;99.90;;;;;;4979731;28;20419;-87
2023/12/07 08:18:53;;;;;;;12.93;7.78;;;2.00;99.90;;;;;;4996066;28;20077;-90
2023/12/07 08:21:23;;;;;;;14.57;9.05;;;3.40;99.90;;;;;;5012577;28;20042;-91
2023/12/07 08:23:48;;;;;;;15.70;8.88;;;1.90;99.90;;;;;;4995328;28;20413;-86
2023/12/07 08:26:14;;;;;;;13.30;8.90;;;3.30;99.90;;;;;;4995189;28;20125;-86
2023/12/07 08:28:41;;;;;;;13.60;8.15;;;2.80;99.90;;;;;;5013449;28;20049;-87
2023/12/07 08:31:07;;;;;;;14.95;9.43;;;2.30;99.90;;;;;;5015967;28;20046;-87
2023/12/07 08:33:35;;;;;;;13.73;8.80;;;2.90;99.90;;;;;;4998793;28;20053;-85
2023/12/07 08:36:02;;;;;;;13.88;8.75;;;2.40;99.90;;;;;;4999240;28;20096;-86
2023/12/07 08:38:28;;;;;;;14.90;8.40;;;2.50;99.90;;;;;;4997751;28;20153;-86
2023/12/07 08:40:53;;;;;;;15.32;9.05;;;2.40;99.90;;;;;;4998020;28;20077;-85
2023/12/07 08:50:41;;;;;;;14.57;8.60;;;2.60;99.90;;;;;;5015198;28;20117;-85
2023/12/07 08:53:07;;;;;;;17.67;9.00;;;2.60;99.90;;;;;;4997881;28;20141;-85
2023/12/07 08:55:33;;;;;;;16.17;9.52;;;2.60;99.90;;;;;;4997295;28;20050;-87
2023/12/07 08:58:00;;;;;;;14.80;9.10;;;2.60;99.90;;;;;;5005231;28;20498;-87
2023/12/07 09:00:26;;;;;;;16.50;9.27;;;3.40;99.90;;;;;;4981407;28;20066;-87
2023/12/07 09:02:52;;;;;;;18.13;9.43;;;3.40;99.90;;;;;;5015114;28;20053;-86
2023/12/07 09:05:18;;;;;;;18.50;9.48;;;3.10;99.90;;;;;;4997388;28;20083;-86
2023/12/07 09:07:44;;;;;;;18.23;9.60;;;3.10;99.90;;;;;;4998076;28;20057;-86
2023/12/07 09:10:10;;;;;;;14.65;9.05;;;2.70;99.90;;;;;;5007628;28;20132;-85
2023/12/07 09:12:36;;;;;;;14.55;9.40;;;2.60;99.90;;;;;;5013500;28;20132;-85
2023/12/07 09:15:03;;;;;;;16.30;9.85;;;2.30;99.90;;;;;;5013600;28;20495;-84
2023/12/07 09:17:29;;;;;;;14.23;9.48;;;2.50;99.90;;;;;;5014322;28;20482;-86
2023/12/07 09:19:55;;;;;;;16.55;9.85;;;2.60;99.90;;;;;;5012550;28;20109;-85
2023/12/07 09:22:21;;;;;;;17.15;10.02;;;3.10;99.90;;;;;;5014416;28;20085;-84
2023/12/07 09:24:47;;;;;;;16.73;9.57;;;1.70;99.90;;;;;;5014250;28;20073;-85
2023/12/07 09:27:15;;;;;;;19.80;11.40;;;3.40;99.90;;;;;;5012627;28;20048;-86
2023/12/07 09:29:41;;;;;;;17.20;10.73;;;3.00;99.90;;;;;;5013536;28;20056;-86
2023/12/07 09:32:07;;;;;;;17.77;10.70;;;3.10;99.90;;;;;;4997097;28;20398;-85
2023/12/07 09:34:33;;;;;;;16.80;11.18;;;3.80;99.90;;;;;;4996970;28;20081;-85
2023/12/07 09:37:09;;;;;;;21.08;11.63;;;3.30;99.90;;;;;;4993312;28;20151;-85
2023/12/07 09:39:36;;;;;;;17.05;10.07;;;3.30;99.90;;;;;;4996652;28;20399;-86
2023/12/07 09:42:02;;;;;;;20.35;11.02;;;3.40;99.90;;;;;;5001179;28;20042;-86
2023/12/07 09:44:28;;;;;;;17.45;11.60;;;3.40;99.90;;;;;;4978464;28;20050;-85
2023/12/07 09:46:54;;;;;;;17.95;10.70;;;4.30;99.90;;;;;;4978789;28;20193;-85
2023/12/07 09:49:23;;;;;;;15.75;10.35;;;4.30;99.90;;;;;;4986787;28;20184;-85
2023/12/07 09:51:50;;;;;;;15.63;10.00;;;3.60;99.90;;;;;;4979165;28;20041;-85
2023/12/07 09:54:17;;;;;;;21.88;10.77;;;4.50;99.90;;;;;;4981123;28;20129;-85
2023/12/07 09:56:43;;;;;;;16.90;11.05;;;4.40;99.90;;;;;;5012439;28;20041;-85
2023/12/07 09:59:09;;;;;;;19.88;9.77;;;3.70;99.90;;;;;;4968244;28;20474;-85
2023/12/07 10:01:35;;;;;;;17.88;10.73;;;3.90;99.90;;;;;;4995968;28;20046;-85
2023/12/07 10:04:20;;;;;;;17.00;10.77;;;4.20;99.90;;;;;;4974134;28;20093;-85
2023/12/07 10:06:50;;;;;;;18.02;10.25;;;3.80;99.90;;;;;;4976920;28;20390;-85
2023/12/07 10:09:18;;;;;;;17.17;9.25;;;4.00;99.90;;;;;;4994601;28;20048;-85
2023/12/07 10:11:44;;;;;;;16.52;9.48;;;3.60;99.90;;;;;;4976589;28;20089;-85
2023/12/07 10:14:10;;;;;;;15.40;9.80;;;3.40;99.90;;;;;;4994231;28;20078;-85
2023/12/07 10:16:37;;;;;;;19.35;10.52;;;3.90;99.90;;;;;;5003572;28;20042;-86
2023/12/07 10:19:21;;;;;;;20.02;11.68;;;4.80;99.90;;;;;;5013648;28;20052;-85
2023/12/07 10:21:51;;;;;;;19.95;11.70;;;4.10;99.90;;;;;;4978428;28;20049;-84
2023/12/07 10:24:24;;;;;;;22.83;12.05;;;4.10;99.90;;;;;;5012020;28;20132;-85
2023/12/07 10:26:51;;;;;;;20.35;12.88;;;4.00;99.90;;;;;;4996340;28;20454;-85
2023/12/07 10:29:23;;;;;;;22.83;13.00;;;4.30;99.90;;;;;;4995068;28;20129;-85
2023/12/07 10:31:48;;;;;;;18.83;12.60;;;5.30;99.90;;;;;;4994490;28;20045;-86
2023/12/07 10:34:19;;;;;;;22.20;12.45;;;4.90;99.90;;;;;;4990938;28;20411;-85
2023/12/07 10:36:47;;;;;;;18.95;12.10;;;4.60;99.90;;;;;;4982479;28;20061;-85
2023/12/07 10:39:13;;;;;;;20.65;13.45;;;4.70;99.90;;;;;;5004073;28;20129;-86
2023/12/07 10:41:42;;;;;;;22.75;12.88;;;5.20;99.90;;;;;;5015017;28;20129;-86
2023/12/07 10:44:11;;;;;;;23.25;14.20;;;4.50;99.90;;;;;;5006150;28;20128;-85
2023/12/07 10:46:39;;;;;;;24.95;15.05;;;4.80;99.90;;;;;;4995692;28;20188;-85
2023/12/07 10:49:10;;;;;;;23.20;14.43;;;4.90;99.90;;;;;;5013065;28;20068;-85
2023/12/07 10:51:46;;;;;;;26.75;14.25;;;5.40;99.90;;;;;;4994755;28;20037;-85
2023/12/07 10:54:16;;;;;;;25.85;15.38;;;4.50;99.90;;;;;;5013193;28;20124;-85
2023/12/07 10:56:48;;;;;;;21.65;14.38;;;4.60;99.90;;;;;;4979117;28;20046;-85
2023/12/07 10:59:15;;;;;;;25.00;15.00;;;5.30;99.90;;;;;;5013028;28;20456;-85
2023/12/07 11:01:42;;;;;;;22.38;14.25;;;5.30;99.90;;;;;;5002267;28;20049;-85
2023/12/07 11:04:11;;;;;;;24.98;14.13;;;5.60;99.90;;;;;;5015360;28;20090;-85
2023/12/07 11:06:37;;;;;;;26.10;15.25;;;4.70;99.90;;;;;;5032528;28;20167;-85
2023/12/07 11:09:08;;;;;;;22.95;13.77;;;4.60;99.90;;;;;;5015212;28;20068;-86
2023/12/07 11:11:46;;;;;;;22.95;14.15;;;5.00;99.90;;;;;;5015175;28;20049;-85
2023/12/07 11:14:14;;;;;;;22.73;13.63;;;4.80;99.90;;;;;;5013295;28;20052;-85
2023/12/07 11:16:45;;;;;;;23.58;14.57;;;5.50;99.90;;;;;;5014920;28;20045;-85
2023/12/07 11:19:29;;;;;;;21.10;14.00;;;4.90;99.90;;;;;;5014844;28;20045;-84
2023/12/07 11:22:07;;;;;;;22.75;13.50;;;5.60;99.90;;;;;;5014702;28;20137;-85
2023/12/07 11:24:33;;;;;;;23.25;14.38;;;4.90;99.90;;;;;;5032430;28;20033;-86
2023/12/07 11:26:58;;;;;;;23.17;14.80;;;5.00;99.90;;;;;;5012901;28;20044;-85
2023/12/07 11:29:25;;;;;;;23.92;14.35;;;5.00;99.90;;;;;;5001486;28;20042;-85
2023/12/07 11:31:55;;;;;;;23.55;14.73;;;4.80;99.90;;;;;;5011962;28;20076;-85
2023/12/07 11:34:52;;;;;;;21.80;14.15;;;5.70;99.90;;;;;;5003262;28;20053;-85
2023/12/07 11:37:17;;;;;;;22.42;15.20;;;4.70;99.90;;;;;;4913922;29;20473;-85
2023/12/07 11:39:46;;;;;;;24.88;15.00;;;5.40;99.90;;;;;;4897071;29;20135;-86
2023/12/07 11:42:14;;;;;;;22.75;14.15;;;5.60;99.90;;;;;;4897676;29;20056;-86
2023/12/07 11:44:41;;;;;;;22.85;14.90;;;5.20;99.90;;;;;;4898364;29;20051;-86
2023/12/07 11:47:08;;;;;;;20.70;13.65;;;4.10;99.90;;;;;;4897633;29;20058;-86
2023/12/07 11:49:34;;;;;;;25.55;14.68;;;5.40;99.90;;;;;;4898541;29;20052;-86
2023/12/07 11:52:01;;;;;;;22.17;13.25;;;5.50;99.90;;;;;;4905147;29;20044;-85
2023/12/07 11:54:27;;;;;;;19.10;12.98;;;6.00;99.90;;;;;;4896817;29;20064;-86
2023/12/07 11:56:56;;;;;;;20.70;13.48;;;6.20;99.90;;;;;;4898933;29;20501;-86
2023/12/07 11:59:27;;;;;;;18.25;12.73;;;5.30;99.90;;;;;;4898081;29;20084;-85
2023/12/07 12:01:53;;;;;;;18.52;11.52;;;6.20;99.90;;;;;;4897754;29;20583;-85
2023/12/07 12:04:21;;;;;;;20.45;12.85;;;4.50;99.90;;;;;;4901731;29;20048;-84
2023/12/07 12:06:47;;;;;;;19.88;12.35;;;5.90;99.90;;;;;;4901443;29;20577;-85
2023/12/07 12:09:17;;;;;;;21.20;12.20;;;5.90;99.90;;;;;;4901474;29;20040;-86
2023/12/07 12:11:47;;;;;;;18.58;11.90;;;5.20;99.90;;;;;;4901665;29;20048;-85
2023/12/07 12:14:17;;;;;;;16.52;11.23;;;5.40;99.90;;;;;;4973041;28;20060;-86
2023/12/07 12:16:46;;;;;;;17.13;10.73;;;6.00;99.90;;;;;;4996858;28;20134;-88
2023/12/07 12:19:14;;;;;;;23.45;11.88;;;5.40;99.90;;;;;;4985289;28;20407;-85
2023/12/07 12:21:40;;;;;;;20.98;12.38;;;5.40;99.90;;;;;;4972779;28;20533;-88
2023/12/07 12:24:09;;;;;;;19.17;11.60;;;5.00;99.90;;;;;;4963760;28;20160;-85
2023/12/07 12:26:39;;;;;;;18.13;10.73;;;5.00;99.90;;;;;;4973395;28;20054;-88
2023/12/07 12:29:06;;;;;;;16.13;10.90;;;4.90;99.90;;;;;;4995799;28;20071;-85
2023/12/07 12:31:32;;;;;;;16.55;11.20;;;5.80;99.90;;;;;;5004521;28;20041;-87
2023/12/07 12:34:12;;;;;;;17.45;11.50;;;4.90;99.90;;;;;;4982812;28;20057;-85
2023/12/07 12:36:38;;;;;;;15.18;10.18;;;5.50;99.90;;;;;;4996738;28;20558;-85
2023/12/07 12:39:08;;;;;;;16.75;10.18;;;4.70;99.90;;;;;;5017522;28;20053;-85
2023/12/07 12:41:34;;;;;;;16.67;11.82;;;4.60;99.90;;;;;;5001056;28;20056;-85
2023/12/07 12:43:59;;;;;;;17.77;11.10;;;5.30;99.90;;;;;;5017522;28;20421;-85
2023/12/07 12:46:25;;;;;;;19.23;12.27;;;4.50;99.90;;;;;;5017311;28;20095;-86
2023/12/07 12:48:59;;;;;;;20.60;11.45;;;4.90;99.90;;;;;;5001027;28;20049;-84